Time;durP1;ratioP1;P1;durP2;ratioP2;P2;SDS_P1;SDS_P2;PMS_P1;PMS_P2;Temp;Humidity;BMP_temperature;BMP_pressure;BME280_temperature;BME280_humidity;BME280_pressure;Samples;Min_cycle;Max_cycle;Signal;HPM_P1;HPM_P2
2021/04/25 00:00:41;;;;;;;11.50;7.00;;;;;;;9.65;66.04;95133.41;5093759;28;20441;-75
2021/04/25 00:03:07;;;;;;;11.07;6.60;;;;;;;9.58;66.17;95143.53;5093333;28;20446;-74
2021/04/25 00:05:34;;;;;;;9.87;7.40;;;;;;;9.62;66.79;95145.81;5093896;28;20446;-74
2021/04/25 00:08:00;;;;;;;16.87;6.73;;;;;;;9.60;66.69;95136.41;5093352;28;20442;-74
2021/04/25 00:10:27;;;;;;;8.70;6.87;;;;;;;9.56;66.47;95143.66;5093518;28;20450;-74
2021/04/25 00:12:54;;;;;;;9.27;7.73;;;;;;;9.55;66.73;95139.38;5093576;28;20444;-74
2021/04/25 00:15:23;;;;;;;15.70;7.17;;;;;;;9.49;66.38;95139.81;5093519;28;20975;-74
2021/04/25 00:17:49;;;;;;;7.37;6.50;;;;;;;9.48;66.99;95137.31;5093386;28;20969;-75
2021/04/25 00:20:17;;;;;;;9.60;7.50;;;;;;;9.45;66.92;95153.28;5093340;28;20452;-73
2021/04/25 00:22:44;;;;;;;9.00;6.67;;;;;;;9.42;67.14;95143.88;5093378;28;20483;-75
2021/04/25 00:25:12;;;;;;;12.30;7.60;;;;;;;9.43;67.09;95139.47;5093435;28;20835;-75
2021/04/25 00:27:38;;;;;;;10.23;6.80;;;;;;;9.38;66.73;95147.66;5058251;28;20799;-74
2021/04/25 00:30:08;;;;;;;6.67;6.03;;;;;;;9.36;66.96;95146.97;5093017;28;20553;-75
2021/04/25 00:32:35;;;;;;;8.90;6.80;;;;;;;9.34;67.03;95145.41;5093492;28;20540;-74
2021/04/25 00:35:01;;;;;;;11.60;7.70;;;;;;;9.38;67.06;95144.22;5093447;28;20488;-74
2021/04/25 00:37:28;;;;;;;8.37;6.10;;;;;;;9.38;66.88;95141.59;5093457;28;20454;-75
2021/04/25 00:39:54;;;;;;;11.30;6.90;;;;;;;9.37;67.15;95147.78;5092925;28;20786;-74
2021/04/25 00:42:20;;;;;;;11.70;7.80;;;;;;;9.37;66.93;95150.41;5093144;28;20455;-75
2021/04/25 00:44:49;;;;;;;6.33;5.70;;;;;;;9.38;66.97;95152.91;5093108;28;20893;-74
2021/04/25 00:47:16;;;;;;;10.40;6.93;;;;;;;9.39;66.76;95143.25;5093037;27;20459;-74
2021/04/25 00:49:43;;;;;;;11.27;6.93;;;;;;;9.39;67.32;95146.72;5092844;28;20445;-74
2021/04/25 00:52:10;;;;;;;9.60;7.77;;;;;;;9.39;66.85;95148.50;5093093;27;20495;-75
2021/04/25 00:54:39;;;;;;;8.00;6.80;;;;;;;9.42;66.86;95143.03;5057625;28;20482;-74
2021/04/25 00:57:07;;;;;;;9.93;7.10;;;;;;;9.42;66.50;95151.72;5058216;28;20441;-75
2021/04/25 00:59:34;;;;;;;8.67;7.00;;;;;;;9.41;66.96;95146.59;5093338;28;20510;-75
2021/04/25 01:02:00;;;;;;;9.23;6.80;;;;;;;9.41;66.36;95152.66;5092742;28;20440;-75
2021/04/25 01:04:28;;;;;;;10.93;7.23;;;;;;;9.39;66.35;95149.34;5093097;28;20438;-74
2021/04/25 01:06:54;;;;;;;7.43;6.63;;;;;;;9.38;66.86;95154.69;5090765;28;20927;-74
2021/04/25 01:09:20;;;;;;;16.80;7.30;;;;;;;9.38;66.50;95149.47;5057434;28;20441;-74
2021/04/25 01:11:46;;;;;;;8.80;7.43;;;;;;;9.35;66.76;95144.44;5092987;27;20484;-74
2021/04/25 01:14:13;;;;;;;12.53;7.60;;;;;;;9.31;66.59;95142.06;5092604;28;20444;-75
2021/04/25 01:16:39;;;;;;;9.63;7.63;;;;;;;9.25;67.22;95136.44;5090853;28;20433;-75
2021/04/25 01:19:05;;;;;;;9.63;7.73;;;;;;;9.20;67.15;95139.41;5092623;27;20444;-74
2021/04/25 01:21:33;;;;;;;10.73;6.83;;;;;;;9.16;67.20;95143.22;5092839;28;20451;-74
2021/04/25 01:23:59;;;;;;;9.73;6.93;;;;;;;9.14;67.28;95139.88;5092994;28;20449;-74
2021/04/25 01:26:25;;;;;;;7.83;7.03;;;;;;;9.08;67.73;95145.59;5092955;28;20914;-75
2021/04/25 01:28:52;;;;;;;10.37;7.20;;;;;;;8.96;67.67;95144.72;5092803;28;20814;-74
2021/04/25 01:31:18;;;;;;;11.50;7.10;;;;;;;8.88;68.13;95144.44;5092606;28;20487;-74
2021/04/25 01:33:45;;;;;;;7.23;6.57;;;;;;;8.83;68.61;95140.50;5092859;28;20443;-75
2021/04/25 01:36:11;;;;;;;8.57;6.57;;;;;;;8.81;68.57;95137.16;5092500;28;20789;-74
2021/04/25 01:38:38;;;;;;;8.67;7.27;;;;;;;8.80;68.81;95140.72;5092657;28;20438;-75
2021/04/25 01:41:05;;;;;;;12.10;7.10;;;;;;;8.75;68.78;95135.84;5092828;28;20455;-74
2021/04/25 01:43:31;;;;;;;10.07;7.30;;;;;;;8.72;69.19;95132.63;5092309;28;20478;-74
2021/04/25 01:45:57;;;;;;;12.63;8.00;;;;;;;8.65;69.02;95127.81;5092577;28;20443;-75
2021/04/25 01:48:24;;;;;;;16.00;9.27;;;;;;;8.59;69.67;95130.03;5092592;28;20451;-74
2021/04/25 01:50:50;;;;;;;10.87;7.73;;;;;;;8.43;69.91;95134.75;5093739;28;20452;-75
2021/04/25 01:53:17;;;;;;;8.13;7.43;;;;;;;8.36;70.49;95136.94;5096275;28;20954;-74
2021/04/25 01:55:44;;;;;;;10.80;7.33;;;;;;;8.25;70.52;95134.25;5095966;28;20478;-74
2021/04/25 01:58:11;;;;;;;13.40;7.73;;;;;;;8.15;71.20;95134.06;5096038;28;20455;-74
2021/04/25 02:00:40;;;;;;;11.67;7.47;;;;;;;8.11;71.22;95137.84;5095918;28;20443;-74
2021/04/25 02:03:07;;;;;;;9.87;8.17;;;;;;;8.11;71.60;95134.41;5096291;28;20456;-74
2021/04/25 02:05:35;;;;;;;10.70;7.43;;;;;;;8.11;71.76;95137.03;5095851;28;20444;-75
2021/04/25 02:08:01;;;;;;;11.33;7.63;;;;;;;8.08;71.18;95138.88;5096099;28;20446;-74
2021/04/25 02:10:27;;;;;;;9.20;7.23;;;;;;;8.05;72.14;95143.50;5096062;28;20439;-75
2021/04/25 02:12:55;;;;;;;14.63;7.57;;;;;;;8.03;71.65;95134.94;5095854;28;20487;-74
2021/04/25 02:15:23;;;;;;;15.13;8.93;;;;;;;8.03;71.91;95135.75;5095506;28;20451;-76
2021/04/25 02:17:49;;;;;;;10.30;8.20;;;;;;;8.03;71.77;95133.16;5095845;28;20439;-74
2021/04/25 02:20:18;;;;;;;16.70;8.40;;;;;;;8.00;71.71;95125.53;5095404;28;20450;-74
2021/04/25 02:22:44;;;;;;;8.47;7.57;;;;;;;8.01;71.65;95127.19;5095421;28;21165;-74
2021/04/25 02:25:13;;;;;;;7.80;7.00;;;;;;;7.97;71.70;95120.53;5095914;28;20452;-74
2021/04/25 02:27:39;;;;;;;11.13;7.57;;;;;;;7.97;71.65;95117.09;5093428;28;20445;-75
2021/04/25 02:30:09;;;;;;;9.67;6.77;;;;;;;7.95;71.72;95118.97;5095785;28;20517;-74
2021/04/25 02:32:35;;;;;;;11.13;6.63;;;;;;;7.94;71.50;95115.53;5060163;28;20479;-74
2021/04/25 02:35:02;;;;;;;10.40;7.13;;;;;;;7.99;72.23;95117.81;5095060;28;20471;-74
2021/04/25 02:37:28;;;;;;;15.03;7.07;;;;;;;7.96;71.67;95118.84;5095405;28;20444;-74
2021/04/25 02:39:54;;;;;;;9.87;7.47;;;;;;;7.97;71.60;95115.31;5094443;28;20493;-75
2021/04/25 02:42:21;;;;;;;10.63;6.80;;;;;;;8.00;71.75;95103.78;5094019;28;20454;-74
2021/04/25 02:44:47;;;;;;;13.60;7.90;;;;;;;8.04;72.16;95100.84;5093966;28;20497;-75
2021/04/25 02:47:14;;;;;;;11.00;7.40;;;;;;;8.07;71.45;95095.41;5094200;28;20446;-74
2021/04/25 02:49:41;;;;;;;10.40;8.47;;;;;;;8.07;71.84;95100.63;5094052;28;20441;-74
2021/04/25 02:52:07;;;;;;;8.80;7.30;;;;;;;8.10;71.73;95101.38;5093984;28;20483;-74
2021/04/25 02:54:34;;;;;;;10.13;7.30;;;;;;;8.08;71.45;95099.69;5093831;28;20451;-74
2021/04/25 02:57:00;;;;;;;7.87;6.70;;;;;;;8.07;71.71;95098.00;5094379;28;20443;-75
2021/04/25 02:59:26;;;;;;;7.80;7.00;;;;;;;8.10;71.44;95099.59;5094696;28;20441;-74
2021/04/25 03:01:53;;;;;;;8.77;7.87;;;;;;;8.13;71.73;95099.38;5094444;28;20447;-75
2021/04/25 03:04:20;;;;;;;10.17;8.00;;;;;;;8.13;71.44;95088.09;5026003;28;20441;-74
2021/04/25 03:06:46;;;;;;;9.87;8.00;;;;;;;8.11;71.15;95095.22;5094803;28;20444;-74
2021/04/25 03:09:12;;;;;;;13.47;8.37;;;;;;;8.08;71.98;95097.06;5095070;28;20447;-74
2021/04/25 03:11:39;;;;;;;8.97;8.03;;;;;;;8.07;71.91;95089.34;5094446;28;20487;-74
2021/04/25 03:14:06;;;;;;;8.47;7.57;;;;;;;8.07;71.88;95095.41;5094449;28;20444;-74
2021/04/25 03:16:32;;;;;;;7.73;6.73;;;;;;;8.04;71.82;95098.22;5092443;28;20432;-74
2021/04/25 03:18:58;;;;;;;10.73;7.83;;;;;;;8.04;72.35;95094.78;5095012;28;20557;-74
2021/04/25 03:21:26;;;;;;;9.87;7.63;;;;;;;8.05;71.60;95094.69;5094250;28;20447;-75
2021/04/25 03:23:52;;;;;;;10.80;7.10;;;;;;;8.10;71.28;95104.81;5094036;28;20458;-74
2021/04/25 03:26:19;;;;;;;9.77;7.33;;;;;;;8.14;71.61;95102.81;5094725;28;20840;-74
2021/04/25 03:28:45;;;;;;;8.57;7.40;;;;;;;8.15;71.44;95097.47;5075360;28;20760;-75
2021/04/25 03:31:11;;;;;;;8.70;7.80;;;;;;;8.15;70.65;95104.50;5025475;28;20484;-74
2021/04/25 03:33:37;;;;;;;12.00;8.00;;;;;;;8.14;70.75;95108.06;5094374;28;20436;-74
2021/04/25 03:36:05;;;;;;;20.83;8.20;;;;;;;8.10;71.09;95122.28;5094441;28;20807;-74
2021/04/25 03:38:32;;;;;;;9.33;7.83;;;;;;;8.08;71.53;95109.31;5094101;28;20520;-74
2021/04/25 03:40:58;;;;;;;14.03;9.60;;;;;;;8.03;71.49;95114.84;5094016;28;20793;-74
2021/04/25 03:43:24;;;;;;;13.00;10.60;;;;;;;7.98;71.53;95111.75;5094282;28;20448;-75
2021/04/25 03:45:51;;;;;;;12.57;8.50;;;;;;;7.97;71.14;95104.00;5093928;28;20501;-75
2021/04/25 03:48:17;;;;;;;10.90;8.17;;;;;;;7.99;71.59;95108.19;5094085;27;20447;-74
2021/04/25 03:50:45;;;;;;;10.97;7.90;;;;;;;8.02;71.60;95110.56;5093963;28;20443;-75
2021/04/25 03:53:11;;;;;;;8.93;7.53;;;;;;;8.18;71.35;95109.50;5093609;28;20492;-74
2021/04/25 03:55:38;;;;;;;10.60;7.50;;;;;;;8.37;70.64;95109.84;5093555;28;20439;-75
2021/04/25 03:58:05;;;;;;;9.33;7.93;;;;;;;8.54;70.08;95109.47;5093963;28;20806;-75
2021/04/25 04:00:31;;;;;;;9.80;7.87;;;;;;;8.80;69.22;95117.19;5093748;28;20437;-74
2021/04/25 04:02:57;;;;;;;9.50;6.40;;;;;;;9.09;68.08;95115.84;5093484;28;20442;-74
2021/04/25 04:05:24;;;;;;;8.23;6.97;;;;;;;9.43;66.49;95124.56;5093984;28;20463;-75
2021/04/25 04:07:50;;;;;;;9.93;7.27;;;;;;;9.84;65.97;95124.00;5093781;28;20758;-73
2021/04/25 04:10:17;;;;;;;9.73;7.40;;;;;;;10.44;64.26;95122.75;5093804;28;20442;-74
2021/04/25 04:12:44;;;;;;;10.23;7.70;;;;;;;11.16;61.04;95135.22;5093198;28;20532;-74
2021/04/25 04:15:12;;;;;;;16.63;7.27;;;;;;;11.77;59.06;95128.25;5093493;28;20954;-74
2021/04/25 04:17:38;;;;;;;8.53;7.10;;;;;;;12.43;56.91;95130.44;5058441;28;20876;-75
2021/04/25 04:20:06;;;;;;;8.17;6.47;;;;;;;12.95;54.96;95128.41;5093352;28;20446;-75
2021/04/25 04:22:33;;;;;;;7.80;6.70;;;;;;;13.44;53.68;95138.00;5093489;27;20447;-74
2021/04/25 04:24:59;;;;;;;11.20;7.20;;;;;;;13.85;52.48;95128.84;5093183;28;20450;-74
2021/04/25 04:27:26;;;;;;;11.23;6.70;;;;;;;14.24;51.19;95137.47;5093297;28;20848;-75
2021/04/25 04:29:53;;;;;;;7.87;6.67;;;;;;;14.49;50.44;95135.97;5093072;28;20440;-74
2021/04/25 04:32:19;;;;;;;8.20;6.90;;;;;;;14.84;49.83;95137.00;5092989;28;20486;-74
2021/04/25 04:34:46;;;;;;;11.77;8.00;;;;;;;15.23;48.63;95139.34;5093240;28;20574;-75
2021/04/25 04:37:12;;;;;;;8.53;7.37;;;;;;;15.51;47.29;95130.31;5093580;28;20437;-74
2021/04/25 04:39:39;;;;;;;8.00;7.20;;;;;;;15.75;46.85;95142.91;5093189;28;20439;-75
2021/04/25 04:42:06;;;;;;;9.47;7.60;;;;;;;15.99;46.24;95145.72;5074270;28;20446;-74
2021/04/25 04:44:32;;;;;;;8.77;7.47;;;;;;;16.25;45.46;95142.22;5093069;28;20459;-75
2021/04/25 04:46:59;;;;;;;7.87;7.00;;;;;;;16.32;45.39;95148.53;5093009;28;20445;-74
2021/04/25 04:49:26;;;;;;;7.83;6.80;;;;;;;16.46;45.36;95139.97;5093419;28;20451;-75
2021/04/25 04:51:52;;;;;;;8.87;6.80;;;;;;;16.65;44.51;95141.53;5093023;28;20821;-75
2021/04/25 04:54:18;;;;;;;12.90;7.10;;;;;;;16.78;44.03;95138.47;5093168;28;20453;-75
2021/04/25 04:56:45;;;;;;;7.37;6.60;;;;;;;16.91;44.16;95146.78;5093274;28;20457;-73
2021/04/25 04:59:11;;;;;;;11.40;5.93;;;;;;;16.96;43.87;95139.16;5092648;28;20498;-74
2021/04/25 05:01:37;;;;;;;14.40;7.77;;;;;;;17.14;43.86;95146.97;5092819;28;20439;-74
2021/04/25 05:04:05;;;;;;;10.00;7.57;;;;;;;17.40;42.92;95144.19;5092950;28;20521;-75
2021/04/25 05:06:31;;;;;;;8.77;7.47;;;;;;;17.66;42.63;95147.50;5092781;28;20941;-75
2021/04/25 05:08:58;;;;;;;8.90;7.67;;;;;;;17.73;42.49;95135.25;5093310;28;20436;-75
2021/04/25 05:11:24;;;;;;;7.97;7.20;;;;;;;17.89;42.34;95147.66;5092823;28;21063;-75
2021/04/25 05:13:50;;;;;;;7.83;7.03;;;;;;;17.99;42.11;95148.31;5092640;28;20444;-75
2021/04/25 05:16:17;;;;;;;7.50;6.80;;;;;;;17.97;42.02;95149.47;5092969;28;20458;-75
2021/04/25 05:18:43;;;;;;;7.60;6.80;;;;;;;18.10;41.39;95145.28;5092784;28;20443;-75
2021/04/25 05:21:10;;;;;;;11.30;7.53;;;;;;;18.35;40.83;95145.22;5092725;28;20958;-74
2021/04/25 05:23:37;;;;;;;11.33;7.20;;;;;;;18.46;40.69;95150.97;5092843;28;20807;-75
2021/04/25 05:26:03;;;;;;;7.93;7.20;;;;;;;18.46;40.39;95150.97;5094472;28;20443;-74
2021/04/25 05:28:30;;;;;;;8.20;7.03;;;;;;;18.53;39.73;95151.16;5097035;28;20440;-74
2021/04/25 05:30:57;;;;;;;7.93;7.13;;;;;;;18.73;44.80;95154.22;5096670;28;20536;-75
2021/04/25 05:33:24;;;;;;;13.57;6.63;;;;;;;19.36;39.27;95159.34;5096093;28;21030;-73
2021/04/25 05:35:50;;;;;;;10.33;7.17;;;;;;;19.46;39.83;95159.13;5061084;28;20973;-76
2021/04/25 05:38:17;;;;;;;8.77;6.67;;;;;;;19.55;39.39;95152.75;5096859;28;20486;-76
2021/04/25 05:40:44;;;;;;;9.87;8.40;;;;;;;19.75;38.71;95153.09;5097333;28;20424;-78
2021/04/25 05:43:10;;;;;;;10.27;8.50;;;;;;;19.99;37.40;95152.03;5096479;28;20443;-74
2021/04/25 05:45:36;;;;;;;15.33;9.63;;;;;;;20.01;37.09;95156.19;5096047;27;20448;-74
2021/04/25 05:48:03;;;;;;;13.67;10.57;;;;;;;20.07;37.76;95149.28;5096047;28;20935;-74
2021/04/25 05:50:30;;;;;;;18.33;11.90;;;;;;;19.94;37.71;95151.75;5096628;28;20443;-78
2021/04/25 05:52:57;;;;;;;16.80;11.70;;;;;;;19.86;37.63;95151.81;5096198;28;21004;-75
2021/04/25 05:55:25;;;;;;;19.00;12.00;;;;;;;20.04;37.65;95145.16;5096641;28;20447;-75
2021/04/25 05:57:52;;;;;;;20.33;11.27;;;;;;;20.31;37.20;95145.56;5096318;28;20841;-75
2021/04/25 06:00:21;;;;;;;21.90;12.07;;;;;;;20.41;37.85;95149.63;5096119;28;20451;-74
2021/04/25 06:02:47;;;;;;;18.33;12.40;;;;;;;20.44;37.03;95156.41;5096279;28;20438;-77
2021/04/25 06:05:14;;;;;;;13.53;11.57;;;;;;;20.32;37.15;95150.69;5077039;28;20446;-75
2021/04/25 06:07:41;;;;;;;13.53;11.63;;;;;;;19.90;38.28;95145.13;5095694;28;20928;-74
2021/04/25 06:10:08;;;;;;;19.60;12.10;;;;;;;19.75;38.30;95151.25;5093459;28;20477;-74
2021/04/25 06:12:36;;;;;;;14.80;11.47;;;;;;;19.75;38.19;95153.09;5095933;28;20484;-75
2021/04/25 06:15:03;;;;;;;20.20;13.20;;;;;;;19.03;39.38;95141.94;5095788;28;20442;-74
2021/04/25 06:17:29;;;;;;;17.17;13.03;;;;;;;18.66;40.23;95139.97;5095972;28;20446;-75
2021/04/25 06:19:56;;;;;;;26.57;13.00;;;;;;;18.60;41.73;95140.66;5095466;28;20494;-74
2021/04/25 06:22:22;;;;;;;13.00;11.00;;;;;;;18.68;41.68;95140.63;5095678;28;20440;-75
2021/04/25 06:24:54;;;;;;;14.73;12.17;;;;;;;18.64;40.42;95134.84;5095716;28;20514;-74
2021/04/25 06:27:20;;;;;;;16.83;12.57;;;;;;;18.90;40.15;95137.19;5095308;28;20442;-74
2021/04/25 06:29:47;;;;;;;16.20;11.70;;;;;;;18.73;40.21;95131.13;5095693;28;20441;-77
2021/04/25 06:32:14;;;;;;;12.33;10.60;;;;;;;19.05;40.46;95130.13;5095537;28;20487;-77
2021/04/25 06:34:40;;;;;;;18.67;11.60;;;;;;;19.40;40.29;95128.72;5095250;28;20481;-76
2021/04/25 06:37:06;;;;;;;16.50;11.63;;;;;;;19.61;38.87;95140.56;5095162;28;20476;-75
2021/04/25 06:39:33;;;;;;;15.13;10.87;;;;;;;19.62;39.60;95128.91;5095320;28;20766;-75
2021/04/25 06:41:59;;;;;;;13.00;11.53;;;;;;;19.94;39.37;95130.44;5076118;28;20945;-75
2021/04/25 06:44:26;;;;;;;12.90;11.00;;;;;;;20.24;38.58;95123.28;5095020;28;20445;-75
2021/04/25 06:46:54;;;;;;;15.27;11.00;;;;;;;20.18;38.12;95118.69;5095096;28;20454;-75
2021/04/25 06:49:20;;;;;;;17.37;11.77;;;;;;;19.67;38.60;95114.06;5095424;28;20938;-77
2021/04/25 06:51:47;;;;;;;16.07;11.53;;;;;;;19.66;39.28;95109.75;5094853;28;20531;-74
2021/04/25 06:54:14;;;;;;;15.20;10.10;;;;;;;19.66;39.45;95108.88;5094549;28;20441;-74
2021/04/25 06:56:40;;;;;;;11.90;9.90;;;;;;;19.36;39.78;95113.25;5092379;28;20447;-74
2021/04/25 06:59:06;;;;;;;13.80;9.80;;;;;;;19.32;39.94;95102.16;5094790;28;20450;-73
2021/04/25 07:01:33;;;;;;;11.07;9.30;;;;;;;18.39;41.75;95104.84;5094796;28;20444;-74
2021/04/25 07:04:00;;;;;;;12.10;10.57;;;;;;;18.61;42.24;95103.25;5094491;28;20441;-74
2021/04/25 07:06:26;;;;;;;10.37;9.27;;;;;;;18.94;41.28;95095.97;5094618;28;21252;-74
2021/04/25 07:08:53;;;;;;;10.67;8.77;;;;;;;18.96;40.69;95093.94;5094391;27;20559;-74
2021/04/25 07:11:19;;;;;;;15.27;11.00;;;;;;;18.25;42.12;95097.63;5094725;28;20445;-76
2021/04/25 07:13:45;;;;;;;12.33;9.97;;;;;;;18.57;42.24;95093.97;5076177;28;20887;-76
2021/04/25 07:16:12;;;;;;;12.33;9.90;;;;;;;18.89;41.79;95093.00;5094706;28;20781;-75
2021/04/25 07:18:38;;;;;;;25.33;11.93;;;;;;;19.25;41.58;95095.06;5094844;28;20440;-75
2021/04/25 07:21:05;;;;;;;14.33;10.43;;;;;;;19.49;41.06;95084.22;5094830;28;20448;-75
2021/04/25 07:23:32;;;;;;;15.10;11.63;;;;;;;19.65;41.33;95078.78;5094574;28;20438;-75
2021/04/25 07:25:58;;;;;;;10.63;9.53;;;;;;;19.85;40.47;95080.91;5094560;28;20444;-78
2021/04/25 07:28:25;;;;;;;13.03;9.30;;;;;;;19.53;40.09;95087.34;5094594;28;20454;-75
2021/04/25 07:30:51;;;;;;;14.23;8.70;;;;;;;19.07;41.27;95080.22;5094635;28;20493;-75
2021/04/25 07:33:18;;;;;;;15.50;8.70;;;;;;;18.93;41.39;95069.53;5094720;28;20540;-77
2021/04/25 07:35:44;;;;;;;11.27;8.77;;;;;;;18.88;42.19;95076.22;5094670;28;20483;-80
2021/04/25 07:38:12;;;;;;;10.93;8.70;;;;;;;18.84;41.15;95072.25;5094148;28;20909;-74
2021/04/25 07:40:39;;;;;;;12.50;8.53;;;;;;;18.71;41.63;95069.34;5093973;28;20789;-75
2021/04/25 07:43:06;;;;;;;10.37;8.20;;;;;;;18.61;42.31;95071.38;5094041;28;20458;-74
2021/04/25 07:45:34;;;;;;;11.83;7.47;;;;;;;18.25;43.43;95058.59;5094263;28;20813;-75
2021/04/25 07:48:00;;;;;;;14.93;7.70;;;;;;;18.49;43.61;95062.13;5092462;28;20452;-75
2021/04/25 07:50:26;;;;;;;21.53;7.90;;;;;;;18.63;43.35;95063.25;5093759;28;20436;-76
2021/04/25 07:52:53;;;;;;;10.10;7.03;;;;;;;18.43;40.19;95062.81;5093473;28;20492;-76
2021/04/25 07:55:20;;;;;;;9.67;6.33;;;;;;;18.61;39.18;95065.22;5093385;28;20441;-76
2021/04/25 07:57:46;;;;;;;13.80;7.53;;;;;;;18.45;41.66;95052.84;5093342;28;20924;-76
2021/04/25 08:00:15;;;;;;;9.03;7.73;;;;;;;17.83;41.04;95056.25;5094005;28;20601;-76
2021/04/25 08:02:42;;;;;;;18.33;7.70;;;;;;;17.57;42.95;95052.94;5093188;28;20443;-76
2021/04/25 08:05:09;;;;;;;10.80;6.50;;;;;;;17.51;42.21;95061.59;5093540;28;20442;-76
2021/04/25 08:07:36;;;;;;;7.60;6.63;;;;;;;17.34;42.47;95053.63;5092662;28;20446;-75
2021/04/25 08:10:03;;;;;;;9.67;6.00;;;;;;;17.36;41.22;95057.97;5093219;28;20476;-76
2021/04/25 08:12:30;;;;;;;9.50;6.03;;;;;;;17.69;42.05;95051.66;5124637;27;20482;-75
2021/04/25 08:14:56;;;;;;;8.23;6.20;;;;;;;17.65;41.81;95055.63;5092360;28;20439;-76
2021/04/25 08:17:23;;;;;;;9.00;6.10;;;;;;;17.97;38.56;95053.91;5092695;27;20458;-75
2021/04/25 08:19:49;;;;;;;7.20;5.57;;;;;;;18.18;38.06;95051.47;5073228;28;20446;-75
2021/04/25 08:22:15;;;;;;;8.43;5.80;;;;;;;17.88;39.38;95048.59;5092530;28;20808;-76
2021/04/25 08:24:42;;;;;;;13.10;5.70;;;;;;;17.55;40.31;95047.81;5092529;28;20454;-76
2021/04/25 08:27:08;;;;;;;9.00;5.53;;;;;;;17.09;41.11;95040.59;5073600;28;20438;-77
2021/04/25 08:29:35;;;;;;;9.63;6.63;;;;;;;17.14;40.90;95041.75;5056754;28;20462;-75
2021/04/25 08:32:02;;;;;;;6.93;6.23;;;;;;;17.51;39.83;95033.22;5092333;28;20483;-76
2021/04/25 08:34:28;;;;;;;6.30;5.70;;;;;;;17.57;39.55;95031.72;5092072;28;20456;-76
2021/04/25 08:36:54;;;;;;;5.70;5.07;;;;;;;17.71;39.28;95023.09;5092163;28;20446;-75
2021/04/25 08:39:21;;;;;;;10.07;5.50;;;;;;;17.54;37.96;95026.75;5092457;28;20458;-75
2021/04/25 08:41:47;;;;;;;5.77;4.83;;;;;;;17.49;39.08;95018.47;5092318;28;20440;-75
2021/04/25 08:44:18;;;;;;;6.63;5.30;;;;;;;17.62;38.92;95018.78;5092238;28;20440;-76
2021/04/25 08:46:46;;;;;;;5.27;4.60;;;;;;;17.88;38.62;95019.38;5092407;28;20468;-75
2021/04/25 08:49:14;;;;;;;8.80;5.30;;;;;;;18.07;37.81;95009.38;5056920;28;20443;-75
2021/04/25 08:51:41;;;;;;;6.13;4.77;;;;;;;18.29;38.24;95015.75;5023510;28;20483;-76
2021/04/25 08:54:08;;;;;;;18.27;5.67;;;;;;;18.48;37.84;95010.78;5092293;28;20454;-75
2021/04/25 08:56:35;;;;;;;7.40;5.40;;;;;;;18.40;36.82;95013.50;5092035;28;20446;-75
2021/04/25 08:59:02;;;;;;;6.13;5.13;;;;;;;18.56;37.43;95013.41;5092170;28;20439;-75
2021/04/25 09:01:28;;;;;;;9.53;4.80;;;;;;;18.47;37.48;95014.44;5096155;28;20447;-76
2021/04/25 09:03:55;;;;;;;8.50;6.07;;;;;;;18.57;37.06;95004.44;5096245;28;20453;-76
2021/04/25 09:06:21;;;;;;;6.83;5.40;;;;;;;18.63;37.15;95012.75;5096302;28;20455;-76
2021/04/25 09:08:51;;;;;;;8.20;5.50;;;;;;;18.23;35.84;95007.47;5096090;28;20449;-76
2021/04/25 09:11:25;;;;;;;12.37;5.77;;;;;;;17.93;35.60;94995.81;5096078;28;20925;-75
2021/04/25 09:14:13;;;;;;;12.20;6.17;;;;;;;17.82;36.58;94993.53;5096025;28;20868;-76
2021/04/25 09:16:40;;;;;;;6.40;4.37;;;;;;;18.11;36.60;94981.47;5095955;28;20497;-76
2021/04/25 09:19:07;;;;;;;6.73;5.33;;;;;;;18.37;35.75;94981.97;5095945;28;20443;-75
2021/04/25 09:21:34;;;;;;;8.30;4.80;;;;;;;18.62;34.03;94988.00;5095769;28;20449;-75
2021/04/25 09:24:20;;;;;;;6.00;4.40;;;;;;;18.79;34.51;94978.06;5095846;28;20444;-76
2021/04/25 09:26:47;;;;;;;7.50;4.67;;;;;;;18.89;34.39;94976.00;5093656;28;20426;-77
2021/04/25 09:29:13;;;;;;;11.53;5.70;;;;;;;18.97;35.22;94965.28;5095957;28;20456;-75
2021/04/25 09:31:40;;;;;;;8.30;4.67;;;;;;;18.65;33.67;94968.22;5095686;28;20447;-76
2021/04/25 09:34:11;;;;;;;7.27;4.20;;;;;;;18.23;34.80;94964.16;5095444;28;20440;-75
2021/04/25 09:36:39;;;;;;;5.90;4.23;;;;;;;18.09;34.20;94951.59;5095343;28;20467;-75
2021/04/25 09:39:10;;;;;;;6.40;4.37;;;;;;;18.15;33.67;94957.03;5095474;28;20931;-76
2021/04/25 09:41:37;;;;;;;11.13;4.10;;;;;;;18.16;32.01;94953.38;5095552;28;20443;-75
2021/04/25 09:44:04;;;;;;;5.70;4.40;;;;;;;18.20;31.55;94952.00;5095339;28;20436;-75
2021/04/25 09:46:53;;;;;;;3.50;3.07;;;;;;;17.64;26.19;94948.63;5095427;28;20448;-75
2021/04/25 09:49:40;;;;;;;3.50;3.20;;;;;;;17.73;27.74;94944.13;5095133;28;20443;-76
2021/04/25 09:52:07;;;;;;;4.20;2.13;;;;;;;17.45;26.33;94941.06;5095026;28;21012;-75
2021/04/25 09:54:33;;;;;;;4.63;3.20;;;;;;;17.29;25.84;94941.09;5095178;28;20770;-76
2021/04/25 09:57:00;;;;;;;3.33;3.03;;;;;;;17.20;28.26;94932.34;5094235;28;20443;-75
2021/04/25 09:59:27;;;;;;;4.20;3.20;;;;;;;17.51;28.84;94921.78;5059841;28;20528;-75
2021/04/25 10:02:03;;;;;;;3.93;3.07;;;;;;;17.72;27.36;94917.78;5094630;28;20870;-75
2021/04/25 10:04:31;;;;;;;3.73;2.67;;;;;;;17.88;27.22;94915.84;5095517;28;20469;-76
2021/04/25 10:07:00;;;;;;;4.07;2.80;;;;;;;17.76;24.35;94914.59;5095933;28;20445;-76
2021/04/25 10:09:28;;;;;;;2.50;2.30;;;;;;;17.08;22.74;94901.88;5096227;28;20444;-76
2021/04/25 10:11:58;;;;;;;3.10;2.80;;;;;;;17.24;24.68;94904.47;5094649;28;20494;-76
2021/04/25 10:14:26;;;;;;;5.00;3.10;;;;;;;17.22;23.07;94895.88;5127752;27;20439;-76
2021/04/25 10:16:52;;;;;;;3.63;2.70;;;;;;;17.00;25.17;94889.44;5093089;28;20523;-76
2021/04/25 10:19:20;;;;;;;5.13;2.87;;;;;;;17.15;25.34;94889.59;5094541;28;20783;-75
2021/04/25 10:21:47;;;;;;;8.23;3.00;;;;;;;17.26;25.91;94880.44;5094879;28;20502;-76
2021/04/25 10:24:19;;;;;;;3.70;3.00;;;;;;;17.30;24.97;94877.25;5094838;28;21146;-76
2021/04/25 10:27:06;;;;;;;7.57;3.20;;;;;;;17.09;25.09;94874.38;5060526;28;20467;-76
2021/04/25 10:29:36;;;;;;;4.30;3.13;;;;;;;16.90;26.33;94869.44;5094443;28;20452;-76
2021/04/25 10:32:05;;;;;;;5.73;2.77;;;;;;;17.09;27.80;94866.41;5094633;27;20495;-76
2021/04/25 10:34:31;;;;;;;4.27;3.80;;;;;;;17.33;27.72;94870.78;5094572;28;20469;-76
2021/04/25 10:37:08;;;;;;;5.57;3.70;;;;;;;17.45;27.04;94869.44;5094557;28;20440;-76
2021/04/25 10:39:41;;;;;;;3.67;2.80;;;;;;;17.68;26.73;94863.38;5094456;28;20814;-76
2021/04/25 10:42:31;;;;;;;4.60;4.00;;;;;;;17.94;27.37;94862.06;5094563;28;20448;-76
2021/04/25 10:45:17;;;;;;;7.10;2.90;;;;;;;18.19;27.22;94862.72;5094263;28;20486;-76
2021/04/25 10:47:45;;;;;;;7.00;4.10;;;;;;;18.38;27.97;94863.25;5094223;28;20526;-76
2021/04/25 10:50:40;;;;;;;5.80;4.00;;;;;;;18.50;28.53;94857.34;5094095;28;20538;-75
2021/04/25 10:53:24;;;;;;;3.50;3.20;;;;;;;18.69;26.54;94849.88;5012390;28;20488;-76
2021/04/25 10:56:12;;;;;;;3.20;2.90;;;;;;;18.81;26.12;94851.09;5012274;28;20443;-78
2021/04/25 10:58:39;;;;;;;3.50;2.73;;;;;;;18.64;24.54;94847.78;5011779;28;20452;-76
2021/04/25 11:01:05;;;;;;;3.30;3.00;;;;;;;17.87;25.89;94852.31;5012069;28;20446;-76
2021/04/25 11:03:42;;;;;;;2.83;2.63;;;;;;;18.04;23.25;94853.03;5012030;28;20505;-77
2021/04/25 11:06:25;;;;;;;3.57;2.63;;;;;;;18.03;22.98;94846.09;5011807;28;20443;-75
2021/04/25 11:08:51;;;;;;;7.83;3.00;;;;;;;18.18;24.47;94849.59;5011466;28;20451;-77
2021/04/25 11:11:32;;;;;;;3.10;2.90;;;;;;;18.15;23.17;94839.34;5011810;28;20451;-75
2021/04/25 11:13:59;;;;;;;3.30;3.00;;;;;;;18.41;24.36;94847.75;5011626;28;20480;-76
2021/04/25 11:16:27;;;;;;;4.63;3.07;;;;;;;18.67;25.97;94838.59;5011273;28;20462;-79
2021/04/25 11:19:00;;;;;;;4.13;2.60;;;;;;;18.88;24.11;94841.41;5011600;28;20475;-81
2021/04/25 11:21:54;;;;;;;3.38;3.13;;;;;;;18.96;23.51;94835.97;4995313;28;20471;-84
2021/04/25 11:24:26;;;;;;;3.77;3.20;;;;;;;18.82;24.52;94823.50;5013006;28;20204;-85
2021/04/25 11:26:55;;;;;;;5.20;3.10;;;;;;;18.82;24.75;94832.31;5013113;28;20468;-87
2021/04/25 11:29:43;;;;;;;4.43;3.60;;;;;;;18.88;26.91;94828.09;5030211;28;20448;-87
2021/04/25 11:32:27;;;;;;;4.50;3.00;;;;;;;18.85;25.77;94823.16;5095364;27;20468;-86
2021/04/25 11:35:13;;;;;;;7.60;2.97;;;;;;;18.82;26.87;94816.38;5095341;28;20475;-86